createdAt,value
2022-11-24T00:00:12.356Z,0
2022-11-24T00:03:37.606Z,0
2022-11-24T00:07:02.802Z,0
2022-11-24T00:10:28.042Z,0
2022-11-24T00:13:53.233Z,0
2022-11-24T00:17:18.462Z,0
2022-11-24T00:20:43.654Z,0
2022-11-24T00:24:08.869Z,0
2022-11-24T00:27:34.105Z,0
2022-11-24T00:30:59.316Z,0
2022-11-24T00:34:24.496Z,0
2022-11-24T00:37:49.716Z,0
2022-11-24T00:41:14.922Z,0
2022-11-24T00:44:40.157Z,0
2022-11-24T00:48:05.357Z,0
2022-11-24T00:51:30.606Z,0
2022-11-24T00:54:55.801Z,0
2022-11-24T00:58:21.053Z,0
2022-11-24T01:01:46.328Z,0
2022-11-24T01:05:11.488Z,0
2022-11-24T01:08:36.706Z,0
2022-11-24T01:12:01.914Z,0
2022-11-24T01:15:27.117Z,0
2022-11-24T01:18:52.367Z,0
2022-11-24T01:22:17.561Z,0
2022-11-24T01:25:42.778Z,0
2022-11-24T01:29:07.986Z,0
2022-11-24T01:32:33.217Z,0
2022-11-24T01:35:58.419Z,0
2022-11-24T01:39:23.644Z,0
2022-11-24T01:42:48.851Z,0
2022-11-24T01:46:14.123Z,0
2022-11-24T01:49:39.276Z,0
2022-11-24T01:53:04.518Z,0
2022-11-24T01:56:29.704Z,0
2022-11-24T01:59:54.932Z,0
2022-11-24T02:03:20.159Z,0
2022-11-24T02:06:45.369Z,0
2022-11-24T02:10:10.611Z,0
2022-11-24T02:13:35.772Z,0
2022-11-24T02:17:00.980Z,0
2022-11-24T02:20:26.182Z,0
2022-11-24T02:23:51.412Z,0
2022-11-24T02:27:16.657Z,0
2022-11-24T02:30:41.860Z,0
2022-11-24T02:34:07.046Z,0
2022-11-24T02:37:32.254Z,0
2022-11-24T02:40:57.454Z,0
2022-11-24T02:44:22.683Z,0
2022-11-24T02:47:47.893Z,0
2022-11-24T02:51:13.103Z,0
2022-11-24T02:54:38.312Z,0
2022-11-24T02:58:03.507Z,0
2022-11-24T03:01:28.808Z,0
2022-11-24T03:04:53.916Z,0
2022-11-24T03:08:19.128Z,0
2022-11-24T03:11:44.312Z,0
2022-11-24T03:15:09.547Z,0
2022-11-24T03:18:34.760Z,0
2022-11-24T03:21:59.963Z,0
2022-11-24T03:25:25.173Z,0
2022-11-24T03:28:50.381Z,0
2022-11-24T03:32:15.575Z,0
2022-11-24T03:35:40.801Z,0
2022-11-24T03:39:06.006Z,0
2022-11-24T03:42:31.228Z,0
2022-11-24T03:45:56.441Z,0
2022-11-24T03:49:21.635Z,0
2022-11-24T03:52:46.883Z,0
2022-11-24T03:56:12.059Z,0
2022-11-24T03:59:37.268Z,0
2022-11-24T04:03:02.534Z,0
2022-11-24T04:06:27.681Z,0
2022-11-24T04:09:52.918Z,0
2022-11-24T04:13:18.099Z,0
2022-11-24T04:16:43.307Z,0
2022-11-24T04:20:08.511Z,0
2022-11-24T04:23:33.748Z,0
2022-11-24T04:26:58.982Z,0
2022-11-24T04:30:24.151Z,0
2022-11-24T04:33:49.367Z,0
2022-11-24T04:37:14.567Z,0
2022-11-24T04:40:39.766Z,0
2022-11-24T04:44:05.012Z,0
2022-11-24T04:47:30.208Z,0
2022-11-24T04:50:55.417Z,0
2022-11-24T04:54:20.622Z,0
2022-11-24T04:57:45.864Z,0
2022-11-24T05:01:11.090Z,0
2022-11-24T05:04:36.647Z,0
2022-11-24T05:08:01.639Z,0
2022-11-24T05:11:26.791Z,0
2022-11-24T05:14:51.993Z,0
2022-11-24T05:18:17.326Z,0
2022-11-24T05:21:42.505Z,0
2022-11-24T05:25:07.699Z,0
2022-11-24T05:28:32.900Z,0
2022-11-24T05:31:58.107Z,0
2022-11-24T05:35:23.351Z,0
2022-11-24T05:38:48.531Z,0
2022-11-24T05:42:13.734Z,0
2022-11-24T05:45:38.934Z,0
2022-11-24T05:49:04.123Z,0
2022-11-24T05:52:29.362Z,0
2022-11-24T05:55:54.531Z,0
2022-11-24T05:59:19.727Z,0
2022-11-24T06:02:45.008Z,0
2022-11-24T06:06:10.169Z,0
2022-11-24T06:09:35.409Z,0
2022-11-24T06:13:00.581Z,0
2022-11-24T06:16:25.859Z,0
2022-11-24T06:19:50.972Z,0
2022-11-24T06:23:16.163Z,0
2022-11-24T06:26:41.402Z,1
2022-11-24T06:30:06.593Z,1
2022-11-24T06:33:31.798Z,1
2022-11-24T06:36:56.992Z,2
2022-11-24T06:40:22.203Z,3
2022-11-24T06:43:47.450Z,2
2022-11-24T06:47:12.639Z,4
2022-11-24T06:50:37.832Z,4
2022-11-24T06:54:03.063Z,4
2022-11-24T06:57:28.280Z,6
2022-11-24T07:00:53.578Z,7
2022-11-24T07:04:18.711Z,11
2022-11-24T07:07:43.944Z,13
2022-11-24T07:11:09.120Z,15
2022-11-24T07:14:34.595Z,16
2022-11-24T07:17:59.549Z,19
2022-11-24T07:21:24.730Z,24
2022-11-24T07:24:49.938Z,27
2022-11-24T07:28:15.145Z,21
2022-11-24T07:31:40.346Z,18
2022-11-24T07:35:05.572Z,18
2022-11-24T07:38:30.754Z,22
2022-11-24T07:41:55.949Z,21
2022-11-24T07:45:21.162Z,22
2022-11-24T07:48:46.371Z,24
2022-11-24T07:52:11.620Z,29
2022-11-24T07:55:36.806Z,36
2022-11-24T07:59:02.026Z,52
2022-11-24T08:02:27.225Z,47
2022-11-24T08:06:08.172Z,66
2022-11-24T08:09:17.746Z,96
2022-11-24T08:12:43.938Z,97
2022-11-24T08:16:08.098Z,80
2022-11-24T08:19:33.235Z,134
2022-11-24T08:22:58.645Z,147
2022-11-24T08:26:23.868Z,140
2022-11-24T08:29:49.050Z,119
2022-11-24T08:33:14.247Z,119
2022-11-24T08:36:39.817Z,169
2022-11-24T08:40:05.012Z,108
2022-11-24T08:43:30.703Z,148
2022-11-24T08:46:55.859Z,140
2022-11-24T08:50:21.086Z,139
2022-11-24T08:53:46.291Z,153
2022-11-24T08:57:11.497Z,189
2022-11-24T09:00:36.710Z,183
2022-11-24T09:04:02.008Z,155
2022-11-24T09:07:27.124Z,211
2022-11-24T09:10:52.304Z,243
2022-11-24T09:14:17.505Z,152
2022-11-24T09:17:42.746Z,185
2022-11-24T09:21:07.949Z,165
2022-11-24T09:24:33.178Z,173
2022-11-24T09:27:58.402Z,208
2022-11-24T09:31:23.615Z,177
2022-11-24T09:34:48.817Z,161
2022-11-24T09:38:14.019Z,131
2022-11-24T09:41:39.215Z,104
2022-11-24T09:45:04.417Z,111
2022-11-24T09:48:29.622Z,107
2022-11-24T09:51:54.861Z,71
2022-11-24T09:55:20.079Z,87
2022-11-24T09:58:45.296Z,61
2022-11-24T10:02:10.504Z,67
2022-11-24T10:05:35.701Z,59
2022-11-24T10:09:00.945Z,77
2022-11-24T10:12:26.124Z,46
2022-11-24T10:15:51.384Z,82
2022-11-24T10:19:16.524Z,128
2022-11-24T10:22:41.733Z,108
2022-11-24T10:26:06.994Z,127
2022-11-24T10:29:32.420Z,134
2022-11-24T10:32:57.407Z,131
2022-11-24T10:36:22.608Z,110
2022-11-24T10:39:47.830Z,96
2022-11-24T10:43:13.092Z,92
2022-11-24T10:46:39.561Z,83
2022-11-24T10:50:03.522Z,95
2022-11-24T10:53:28.742Z,93
2022-11-24T10:56:53.958Z,73
2022-11-24T11:00:19.282Z,70
2022-11-24T11:03:44.467Z,82
2022-11-24T11:07:09.779Z,61
2022-11-24T11:10:34.932Z,72
2022-11-24T11:14:04.161Z,85
2022-11-24T11:17:25.386Z,48
2022-11-24T11:20:50.550Z,49
2022-11-24T11:24:15.794Z,40
2022-11-24T11:27:41.116Z,43
2022-11-24T11:31:17.077Z,37
2022-11-24T11:34:32.117Z,39
2022-11-24T11:37:57.329Z,34
2022-11-24T11:41:23.833Z,29
2022-11-24T11:44:49.080Z,37
2022-11-24T11:48:14.289Z,46
2022-11-24T11:51:39.583Z,49
2022-11-24T11:55:04.716Z,67
2022-11-24T11:58:30.089Z,78
2022-11-24T12:01:55.305Z,117
2022-11-24T12:05:20.510Z,122
2022-11-24T12:09:12.003Z,165
2022-11-24T12:12:10.895Z,168
2022-11-24T12:15:36.168Z,132
2022-11-24T12:19:01.320Z,112
2022-11-24T12:22:26.529Z,93
2022-11-24T12:25:51.765Z,95
2022-11-24T12:29:16.950Z,124
2022-11-24T12:32:42.186Z,124
2022-11-24T12:36:07.379Z,107
2022-11-24T12:39:32.940Z,97
2022-11-24T12:42:57.825Z,92
2022-11-24T12:46:23.032Z,105
2022-11-24T12:49:48.211Z,105
2022-11-24T12:53:13.736Z,107
2022-11-24T12:56:38.931Z,142
2022-11-24T13:00:04.158Z,176
2022-11-24T13:03:29.325Z,147
2022-11-24T13:06:54.562Z,126
2022-11-24T13:10:26.325Z,113
2022-11-24T13:13:44.965Z,125
2022-11-24T13:20:35.381Z,108
2022-11-24T13:24:00.606Z,81
2022-11-24T13:27:25.817Z,65
2022-11-24T13:30:51.008Z,56
2022-11-24T13:34:16.243Z,61
2022-11-24T13:37:41.451Z,65
2022-11-24T13:41:27.535Z,51
2022-11-24T13:44:31.937Z,48
2022-11-24T13:47:58.045Z,45
2022-11-24T13:51:23.281Z,39
2022-11-24T13:54:48.472Z,40
2022-11-24T13:58:13.734Z,42
2022-11-24T14:01:39.087Z,39
2022-11-24T14:05:04.261Z,37
2022-11-24T14:08:29.519Z,35
2022-11-24T14:11:54.736Z,36
2022-11-24T14:15:19.976Z,36
2022-11-24T14:18:45.257Z,37
2022-11-24T14:22:10.642Z,37
2022-11-24T14:25:35.894Z,36
2022-11-24T14:29:01.149Z,39
2022-11-24T15:08:08.050Z,8
2022-11-24T15:11:33.334Z,7
2022-11-24T15:14:58.564Z,6
2022-11-24T15:18:23.788Z,4
2022-11-24T15:21:49.095Z,3
2022-11-24T15:25:14.335Z,2
2022-11-24T15:28:39.628Z,1
2022-11-24T15:32:04.874Z,0
2022-11-24T15:35:30.110Z,1
2022-11-24T15:38:55.373Z,0
2022-11-24T15:42:20.580Z,0
2022-11-24T15:45:45.803Z,0
2022-11-24T15:49:11.046Z,0
2022-11-24T15:52:37.080Z,0
2022-11-24T15:56:02.335Z,0
2022-11-24T15:59:27.506Z,0
2022-11-24T16:02:52.702Z,0
2022-11-24T16:06:24.008Z,0
2022-11-24T16:09:43.190Z,0
2022-11-24T16:13:08.440Z,0
2022-11-24T16:16:33.679Z,0
2022-11-24T16:20:00.629Z,0
2022-11-24T16:23:24.057Z,0
2022-11-24T16:26:49.304Z,0
2022-11-24T16:30:14.587Z,0
2022-11-24T16:33:39.792Z,0
2022-11-24T16:37:05.087Z,0
2022-11-24T16:40:30.311Z,0
2022-11-24T16:43:55.510Z,0
2022-11-24T16:47:20.786Z,3
2022-11-24T16:50:46.010Z,0
2022-11-24T16:54:11.261Z,0
2022-11-24T16:57:36.489Z,0
2022-11-24T17:01:01.746Z,0
2022-11-24T17:04:26.953Z,0
2022-11-24T17:07:52.224Z,0
2022-11-24T17:11:17.377Z,0
2022-11-24T17:14:43.076Z,0
2022-11-24T17:18:23.844Z,0
2022-11-24T17:21:33.453Z,0
2022-11-24T17:24:58.633Z,0
2022-11-24T17:28:23.880Z,0
2022-11-24T17:31:49.162Z,0
2022-11-24T17:35:14.266Z,0
2022-11-24T17:38:39.509Z,0
2022-11-24T17:42:04.725Z,0
2022-11-24T17:45:30.010Z,0
2022-11-24T17:48:55.255Z,0
2022-11-24T17:52:20.486Z,0
2022-11-24T17:55:45.685Z,0
2022-11-24T17:59:10.933Z,0
2022-11-24T18:02:36.309Z,0
2022-11-24T18:06:01.510Z,0
2022-11-24T18:09:26.784Z,0
2022-11-24T18:12:52.032Z,0
2022-11-24T18:16:17.324Z,0
2022-11-24T18:19:42.505Z,0
2022-11-24T18:23:07.801Z,0
2022-11-24T18:26:33.067Z,0
2022-11-24T18:29:58.350Z,0
2022-11-24T18:33:23.603Z,0
2022-11-24T18:36:48.876Z,0
2022-11-24T18:40:14.190Z,0
2022-11-24T18:43:39.462Z,0
2022-11-24T18:47:04.736Z,0
2022-11-24T18:50:29.969Z,0
2022-11-24T18:53:55.211Z,0
2022-11-24T18:57:20.484Z,3
2022-11-24T19:00:45.743Z,3
2022-11-24T19:04:10.979Z,3
2022-11-24T19:07:36.256Z,0
2022-11-24T19:11:01.455Z,0
2022-11-24T19:14:26.690Z,0
2022-11-24T19:17:51.930Z,0
2022-11-24T19:21:17.148Z,0
2022-11-24T19:24:42.391Z,0
2022-11-24T19:28:07.649Z,0
2022-11-24T19:31:32.922Z,0
2022-11-24T19:34:58.146Z,0
2022-11-24T19:38:28.450Z,0
2022-11-24T19:41:48.672Z,0
2022-11-24T19:45:13.947Z,0
2022-11-24T19:48:39.209Z,0
2022-11-24T19:52:04.431Z,0
2022-11-24T19:55:29.711Z,0
2022-11-24T19:58:54.922Z,0
2022-11-24T20:02:20.229Z,0
2022-11-24T20:05:45.413Z,0
2022-11-24T20:09:10.657Z,0
2022-11-24T20:12:35.956Z,0
2022-11-24T20:16:01.320Z,0
2022-11-24T20:19:26.501Z,0
2022-11-24T20:22:51.750Z,0
2022-11-24T20:26:17.028Z,0
2022-11-24T20:29:46.534Z,0
2022-11-24T20:33:07.580Z,0
2022-11-24T20:36:32.885Z,0
2022-11-24T20:39:58.177Z,0
2022-11-24T20:43:23.443Z,0
2022-11-24T20:46:48.706Z,0
2022-11-24T20:50:13.919Z,0
2022-11-24T20:53:39.158Z,0
2022-11-24T20:57:04.397Z,0
2022-11-24T21:00:29.718Z,0
2022-11-24T21:03:54.963Z,0
2022-11-24T21:07:20.143Z,0
2022-11-24T21:10:45.331Z,0
2022-11-24T21:14:10.557Z,0
2022-11-24T21:17:35.748Z,0
2022-11-24T21:21:00.982Z,0
2022-11-24T21:24:26.151Z,0
2022-11-24T21:27:51.384Z,0
2022-11-24T21:31:16.678Z,0
2022-11-24T21:34:41.862Z,0
2022-11-24T21:38:07.130Z,0
2022-11-24T21:41:32.326Z,0
2022-11-24T21:44:57.507Z,0
2022-11-24T21:48:22.764Z,0
2022-11-24T21:51:47.964Z,0
2022-11-24T21:55:13.189Z,0
2022-11-24T21:58:38.390Z,0
2022-11-24T22:02:05.058Z,0
2022-11-24T22:05:28.809Z,0
2022-11-24T22:08:54.079Z,0
2022-11-24T22:12:19.306Z,0
2022-11-24T22:15:44.532Z,0
2022-11-24T22:19:09.773Z,0
2022-11-24T22:22:34.976Z,0
2022-11-24T22:26:00.168Z,0
2022-11-24T22:29:25.399Z,0
2022-11-24T22:32:50.588Z,0
2022-11-24T22:36:15.779Z,0
2022-11-24T22:39:40.995Z,0
2022-11-24T22:43:06.208Z,0
2022-11-24T22:46:31.446Z,0
2022-11-24T22:49:56.646Z,0
2022-11-24T22:53:21.889Z,0
2022-11-24T22:56:47.078Z,0
2022-11-24T23:00:12.297Z,0
2022-11-24T23:03:37.587Z,0
2022-11-24T23:07:02.724Z,0
2022-11-24T23:10:27.974Z,0
2022-11-24T23:13:53.212Z,0
2022-11-24T23:17:18.461Z,0
2022-11-24T23:20:43.759Z,0
2022-11-24T23:24:09.027Z,0
2022-11-24T23:27:34.233Z,0
2022-11-24T23:30:59.432Z,0
2022-11-24T23:34:24.677Z,0
2022-11-24T23:38:06.856Z,0
2022-11-24T23:41:15.099Z,0
2022-11-24T23:44:40.375Z,0
2022-11-24T23:48:05.625Z,0
2022-11-24T23:51:30.824Z,0
2022-11-24T23:54:56.063Z,0
2022-11-24T23:58:21.241Z,0
